createdAt,value
2022-10-27T00:01:55.712Z,109.60
2022-10-27T00:04:29.772Z,101.80
2022-10-27T00:07:26.861Z,105.70
2022-10-27T00:09:59.086Z,86.20
2022-10-27T00:12:59.010Z,84.40
2022-10-27T00:15:32.923Z,96.20
2022-10-27T00:22:22.874Z,90.00
2022-10-27T00:25:00.220Z,93.50
2022-10-27T00:27:56.649Z,100.30
2022-10-27T00:30:32.405Z,86.70
2022-10-27T00:33:28.445Z,94.20
2022-10-27T00:36:41.021Z,91.40
2022-10-27T00:39:17.758Z,82.00
2022-10-27T00:42:13.272Z,83.40
2022-10-27T00:45:13.338Z,106.50
2022-10-27T00:48:09.700Z,141.50
2022-10-27T00:50:41.391Z,116.90
2022-10-27T00:53:37.210Z,90.50
2022-10-27T00:56:10.509Z,111.60
2022-10-27T00:59:08.886Z,109.80
2022-10-27T01:01:44.822Z,104.90
2022-10-27T01:05:33.473Z,89.60
2022-10-27T01:08:09.990Z,98.70
2022-10-27T01:11:06.836Z,97.90
2022-10-27T01:14:29.245Z,93.10
2022-10-27T01:17:34.811Z,85.50
2022-10-27T01:24:47.702Z,90.40
2022-10-27T01:27:40.683Z,93.40
2022-10-27T01:30:12.853Z,89.10
2022-10-27T01:33:13.522Z,87.90
2022-10-27T01:36:16.306Z,127.00
2022-10-27T01:39:59.615Z,109.50
2022-10-27T01:42:47.150Z,106.10
2022-10-27T01:45:27.014Z,122.50
2022-10-27T01:49:12.078Z,125.30
2022-10-27T01:52:54.576Z,112.00
2022-10-27T01:56:03.683Z,107.30
2022-10-27T01:59:35.964Z,94.80
2022-10-27T02:02:20.367Z,105.00
2022-10-27T02:05:06.303Z,109.90
2022-10-27T02:08:13.466Z,110.10
2022-10-27T02:14:11.143Z,98.10
2022-10-27T02:16:45.354Z,93.00
2022-10-27T02:20:09.901Z,85.00
2022-10-27T02:22:45.415Z,91.70
2022-10-27T02:33:15.215Z,77.40
2022-10-27T02:35:50.243Z,103.80
2022-10-27T02:39:10.578Z,108.80
2022-10-27T02:42:30.778Z,102.20
2022-10-27T02:45:14.741Z,103.50
2022-10-27T02:47:49.706Z,110.40
2022-10-27T02:50:26.713Z,107.60
2022-10-27T02:52:55.321Z,107.30
2022-10-27T02:55:29.668Z,118.50
2022-10-27T02:58:28.366Z,110.20
2022-10-27T03:01:06.396Z,89.30
2022-10-27T03:03:37.578Z,85.40
2022-10-27T03:09:31.482Z,99.60
2022-10-27T03:12:49.845Z,91.50
2022-10-27T03:15:21.955Z,91.40
2022-10-27T03:19:11.993Z,83.50
2022-10-27T03:22:07.393Z,80.60
2022-10-27T03:24:36.818Z,79.90
2022-10-27T03:27:36.967Z,75.20
2022-10-27T03:30:26.186Z,69.40
2022-10-27T03:33:02.495Z,70.30
2022-10-27T03:35:33.228Z,72.80
2022-10-27T03:38:06.157Z,71.90
2022-10-27T03:40:34.569Z,71.40
2022-10-27T03:43:28.546Z,73.40
2022-10-27T03:46:03.166Z,76.40
2022-10-27T03:48:34.817Z,76.30
2022-10-27T03:51:10.399Z,74.30
2022-10-27T03:53:40.727Z,83.90
2022-10-27T03:56:12.877Z,83.60
2022-10-27T03:59:11.104Z,78.60
2022-10-27T04:02:07.349Z,78.90
2022-10-27T04:04:43.575Z,74.70
2022-10-27T04:07:22.508Z,83.30
2022-10-27T04:10:19.126Z,86.70
2022-10-27T04:13:14.838Z,87.70
2022-10-27T04:16:37.817Z,88.00
2022-10-27T04:19:11.697Z,98.50
2022-10-27T04:22:09.679Z,98.70
2022-10-27T04:25:31.179Z,95.30
2022-10-27T04:28:11.689Z,91.80
2022-10-27T04:30:47.315Z,79.80
2022-10-27T04:36:17.689Z,77.60
2022-10-27T04:39:15.059Z,71.20
2022-10-27T04:42:12.975Z,69.50
2022-10-27T04:44:46.719Z,66.30
2022-10-27T04:47:45.636Z,63.20
2022-10-27T04:50:16.196Z,63.40
2022-10-27T04:53:31.633Z,62.20
2022-10-27T04:56:03.713Z,62.10
2022-10-27T04:59:20.653Z,63.40
2022-10-27T05:01:54.736Z,61.70
2022-10-27T05:04:35.404Z,59.50
2022-10-27T05:07:57.992Z,59.50
2022-10-27T05:10:52.213Z,59.20
2022-10-27T05:13:30.943Z,58.40
2022-10-27T05:16:07.821Z,56.60
2022-10-27T05:18:40.801Z,57.40
2022-10-27T05:21:40.112Z,57.80
2022-10-27T05:24:20.983Z,56.30
2022-10-27T05:26:54.598Z,57.00
2022-10-27T05:29:27.586Z,57.00
2022-10-27T05:31:57.547Z,56.20
2022-10-27T05:34:52.172Z,57.50
2022-10-27T05:37:21.586Z,56.30
2022-10-27T05:39:53.460Z,57.80
2022-10-27T05:45:32.076Z,56.80
2022-10-27T05:48:04.290Z,59.70
2022-10-27T05:50:48.028Z,78.60
2022-10-27T05:57:29.525Z,85.30
2022-10-27T06:00:04.169Z,90.00
2022-10-27T06:03:04.746Z,91.80
2022-10-27T06:06:05.961Z,89.30
2022-10-27T06:09:26.123Z,80.60
2022-10-27T06:12:19.370Z,79.30
2022-10-27T06:14:52.516Z,70.50
2022-10-27T06:17:24.010Z,72.20
2022-10-27T06:19:55.754Z,69.20
2022-10-27T06:22:29.190Z,68.20
2022-10-27T06:25:03.882Z,69.90
2022-10-27T06:30:59.166Z,71.50
2022-10-27T06:33:33.041Z,72.10
2022-10-27T06:36:03.478Z,72.40
2022-10-27T06:39:25.095Z,67.30
2022-10-27T06:46:03.446Z,69.70
2022-10-27T06:48:33.543Z,71.00
2022-10-27T06:51:30.656Z,76.60
2022-10-27T06:54:08.812Z,73.10
2022-10-27T06:56:44.621Z,63.90
2022-10-27T06:59:24.434Z,55.10
2022-10-27T07:06:28.990Z,54.40
2022-10-27T07:09:57.006Z,50.10
2022-10-27T07:12:26.215Z,49.70
2022-10-27T07:15:00.567Z,52.10
2022-10-27T07:18:02.788Z,51.20
2022-10-27T07:21:05.711Z,46.90
2022-10-27T07:23:36.130Z,45.30
2022-10-27T07:26:30.975Z,45.60
2022-10-27T07:29:24.522Z,43.70
2022-10-27T07:31:59.018Z,42.80
2022-10-27T07:34:31.690Z,42.70
2022-10-27T07:37:29.970Z,43.20
2022-10-27T07:40:05.776Z,44.60
2022-10-27T07:43:07.840Z,51.70
2022-10-27T07:49:06.227Z,47.60
2022-10-27T07:51:40.432Z,46.10
2022-10-27T07:54:13.801Z,51.80
2022-10-27T07:57:10.214Z,46.20
2022-10-27T08:00:03.875Z,47.30
2022-10-27T08:02:32.343Z,48.40
2022-10-27T08:08:10.259Z,48.90
2022-10-27T08:10:46.443Z,47.60
2022-10-27T08:14:34.003Z,46.70
2022-10-27T08:17:10.333Z,46.60
2022-10-27T08:19:46.524Z,48.40
2022-10-27T08:22:42.607Z,48.00
2022-10-27T08:25:41.627Z,48.10
2022-10-27T08:28:36.353Z,50.30
2022-10-27T08:31:08.954Z,50.80
2022-10-27T08:34:53.301Z,48.30
2022-10-27T08:37:49.470Z,47.90
2022-10-27T08:40:21.867Z,47.80
2022-10-27T08:44:11.559Z,46.90
2022-10-27T08:46:56.748Z,48.70
2022-10-27T08:50:00.213Z,47.80
2022-10-27T08:52:42.514Z,47.90
2022-10-27T08:55:26.741Z,50.70
2022-10-27T08:58:26.090Z,48.60
2022-10-27T09:00:59.875Z,50.30
2022-10-27T09:07:16.315Z,52.60
2022-10-27T09:10:23.011Z,51.90
2022-10-27T09:13:08.628Z,52.50
2022-10-27T09:15:45.769Z,52.40
2022-10-27T09:19:06.747Z,50.30
2022-10-27T09:21:59.854Z,49.80
2022-10-27T09:24:35.645Z,50.10
2022-10-27T09:27:09.182Z,51.40
2022-10-27T09:29:45.027Z,51.20
2022-10-27T09:33:30.163Z,50.80
2022-10-27T09:36:27.706Z,50.30
2022-10-27T09:39:47.701Z,50.50
2022-10-27T09:42:45.651Z,50.60
2022-10-27T09:45:22.819Z,49.00
2022-10-27T09:51:13.155Z,49.00
2022-10-27T09:57:29.223Z,48.80
2022-10-27T10:00:05.006Z,49.10
2022-10-27T10:02:44.236Z,47.50
2022-10-27T10:05:51.209Z,46.90
2022-10-27T10:08:30.718Z,48.30
2022-10-27T10:11:50.668Z,46.90
2022-10-27T10:14:52.226Z,47.20
2022-10-27T10:17:28.803Z,55.50
2022-10-27T10:20:01.585Z,45.20
2022-10-27T10:22:55.575Z,44.90
2022-10-27T10:25:35.820Z,42.30
2022-10-27T10:28:37.638Z,39.00
2022-10-27T10:31:09.546Z,38.10
2022-10-27T10:34:30.350Z,41.30
2022-10-27T10:37:04.142Z,37.70
2022-10-27T10:39:41.513Z,38.00
2022-10-27T10:42:20.223Z,37.70
2022-10-27T10:45:21.714Z,35.90
2022-10-27T10:48:18.174Z,36.50
2022-10-27T10:50:54.863Z,33.80
2022-10-27T10:53:31.680Z,34.70
2022-10-27T10:56:22.930Z,33.60
2022-10-27T10:59:33.968Z,29.50
2022-10-27T11:02:11.096Z,30.70
2022-10-27T11:04:52.279Z,28.70
2022-10-27T11:07:30.985Z,31.80
2022-10-27T11:10:14.229Z,31.30
2022-10-27T11:16:12.415Z,29.40
2022-10-27T11:21:58.666Z,29.20
2022-10-27T11:24:34.806Z,29.70
2022-10-27T11:27:36.130Z,29.00
2022-10-27T11:34:11.285Z,27.20
2022-10-27T11:36:43.327Z,27.30
2022-10-27T11:39:19.662Z,25.50
2022-10-27T11:45:18.034Z,24.70
2022-10-27T11:47:52.342Z,22.70
2022-10-27T11:50:32.006Z,21.30
2022-10-27T11:53:10.856Z,19.50
2022-10-27T11:56:09.207Z,21.10
2022-10-27T11:59:19.873Z,20.20
2022-10-27T12:05:37.415Z,19.80
2022-10-27T12:08:17.787Z,20.30
2022-10-27T12:11:03.744Z,17.60
2022-10-27T12:13:51.325Z,15.80
2022-10-27T12:20:26.700Z,13.20
2022-10-27T12:23:34.568Z,11.60
2022-10-27T12:26:15.577Z,11.70
2022-10-27T12:28:54.192Z,11.80
2022-10-27T12:31:40.989Z,34.30
2022-10-27T12:34:40.615Z,10.60
2022-10-27T12:37:43.519Z,10.00
2022-10-27T12:41:06.128Z,9.90
2022-10-27T12:44:11.831Z,10.10
2022-10-27T12:47:13.409Z,9.90
2022-10-27T12:53:43.079Z,10.10
2022-10-27T12:56:32.406Z,10.20
2022-10-27T12:59:34.381Z,11.00
2022-10-27T13:02:56.276Z,11.00
2022-10-27T13:06:07.842Z,11.00
2022-10-27T13:09:20.052Z,11.40
2022-10-27T13:12:24.357Z,11.50
2022-10-27T13:15:24.814Z,9.80
2022-10-27T13:18:31.867Z,10.80
2022-10-27T13:28:26.228Z,10.80
2022-10-27T13:31:48.770Z,11.80
2022-10-27T13:34:20.961Z,10.20
2022-10-27T13:37:58.758Z,10.90
2022-10-27T13:44:31.902Z,11.60
2022-10-27T13:47:27.137Z,11.50
2022-10-27T13:50:02.355Z,11.10
2022-10-27T13:52:36.824Z,11.30
2022-10-27T13:55:41.064Z,10.90
2022-10-27T13:59:16.643Z,10.70
2022-10-27T14:02:18.382Z,14.90
2022-10-27T14:04:54.417Z,11.70
2022-10-27T14:07:28.007Z,12.80
2022-10-27T14:10:07.129Z,13.40
2022-10-27T14:13:27.072Z,13.90
2022-10-27T14:16:51.595Z,11.80
2022-10-27T14:27:06.983Z,13.80
2022-10-27T14:30:20.226Z,12.70
2022-10-27T14:34:08.079Z,13.60
2022-10-27T14:37:10.981Z,13.50
2022-10-27T14:40:23.463Z,13.70
2022-10-27T14:43:47.620Z,12.60
2022-10-27T14:47:08.813Z,14.40
2022-10-27T14:49:56.290Z,12.00
2022-10-27T14:52:40.360Z,11.60
2022-10-27T14:55:56.777Z,12.00
2022-10-27T14:58:56.640Z,15.00
2022-10-27T15:06:03.051Z,15.30
2022-10-27T15:09:52.585Z,34.30
2022-10-27T15:12:52.838Z,45.50
2022-10-27T15:18:26.103Z,37.40
2022-10-27T15:25:02.258Z,55.60
2022-10-27T15:27:33.934Z,19.50
2022-10-27T15:30:04.516Z,20.60
2022-10-27T15:32:38.262Z,19.10
2022-10-27T15:36:19.934Z,43.90
2022-10-27T15:38:57.792Z,21.30
2022-10-27T15:41:50.408Z,15.20
2022-10-27T15:44:43.557Z,16.80
2022-10-27T15:47:41.560Z,15.80
2022-10-27T15:50:56.577Z,16.20
2022-10-27T15:53:50.005Z,15.70
2022-10-27T15:57:33.640Z,17.40
2022-10-27T16:00:17.989Z,20.60
2022-10-27T16:02:55.630Z,24.80
2022-10-27T16:05:49.170Z,24.90
2022-10-27T16:08:45.788Z,28.00
2022-10-27T16:14:34.771Z,36.90
2022-10-27T16:17:05.046Z,36.90
2022-10-27T16:19:34.496Z,41.50
2022-10-27T16:22:31.994Z,71.80
2022-10-27T16:25:02.449Z,37.00
2022-10-27T16:27:36.246Z,37.50
2022-10-27T16:30:13.712Z,35.80
2022-10-27T16:33:16.652Z,39.80
2022-10-27T16:39:53.147Z,60.50
2022-10-27T16:42:22.095Z,55.40
2022-10-27T16:44:52.411Z,50.50
2022-10-27T16:47:51.903Z,46.00
2022-10-27T16:50:23.864Z,38.40
2022-10-27T16:52:58.602Z,45.80
2022-10-27T16:55:27.083Z,40.90
2022-10-27T16:57:57.617Z,60.30
2022-10-27T17:00:26.765Z,49.30
2022-10-27T17:03:19.865Z,47.50
2022-10-27T17:05:54.247Z,40.30
2022-10-27T17:08:22.736Z,41.80
2022-10-27T17:11:15.925Z,39.40
2022-10-27T17:14:12.329Z,56.80
2022-10-27T17:17:05.376Z,62.30
2022-10-27T17:20:22.637Z,102.10
2022-10-27T17:22:51.299Z,120.10
2022-10-27T17:25:20.321Z,165.50
2022-10-27T17:31:41.741Z,101.50
2022-10-27T17:34:34.962Z,110.10
2022-10-27T17:37:07.228Z,113.70
2022-10-27T17:39:36.355Z,107.90
2022-10-27T17:42:06.530Z,106.60
2022-10-27T17:48:47.667Z,103.60
2022-10-27T17:51:47.053Z,109.90
2022-10-27T17:54:16.542Z,111.90
2022-10-27T17:57:17.136Z,112.00
2022-10-27T17:59:48.975Z,118.60
2022-10-27T18:02:42.298Z,129.30
2022-10-27T18:05:13.570Z,156.60
2022-10-27T18:08:33.140Z,173.30
2022-10-27T18:11:50.728Z,233.90
2022-10-27T18:14:22.906Z,194.10
2022-10-27T18:16:51.986Z,140.40
2022-10-27T18:19:25.095Z,125.20
2022-10-27T18:22:19.474Z,135.40
2022-10-27T18:31:47.882Z,139.60
2022-10-27T18:37:40.006Z,145.90
2022-10-27T18:40:14.477Z,151.80
2022-10-27T18:42:46.197Z,135.80
2022-10-27T18:45:18.109Z,132.80
2022-10-27T18:48:35.558Z,133.20
2022-10-27T18:51:09.007Z,142.20
2022-10-27T18:54:05.079Z,148.10
2022-10-27T18:57:26.409Z,151.80
2022-10-27T19:00:47.437Z,136.30
2022-10-27T19:03:40.479Z,125.70
2022-10-27T19:06:34.081Z,113.80
2022-10-27T19:09:06.439Z,106.00
2022-10-27T19:11:38.789Z,123.10
2022-10-27T19:14:09.816Z,142.70
2022-10-27T19:16:42.095Z,167.20
2022-10-27T19:19:36.003Z,150.60
2022-10-27T19:22:05.792Z,125.50
2022-10-27T19:24:41.834Z,111.10
2022-10-27T19:27:11.022Z,137.50
2022-10-27T19:33:21.613Z,126.00
2022-10-27T19:35:50.836Z,131.10
2022-10-27T19:38:43.497Z,122.60
2022-10-27T19:41:13.646Z,120.90
2022-10-27T19:43:45.648Z,126.70
2022-10-27T19:46:18.804Z,124.20
2022-10-27T19:48:54.165Z,107.60
2022-10-27T19:51:48.215Z,141.40
2022-10-27T19:55:08.999Z,110.80
2022-10-27T19:57:39.935Z,106.80
2022-10-27T20:00:17.381Z,118.10
2022-10-27T20:02:49.637Z,116.30
2022-10-27T20:05:24.275Z,126.40
2022-10-27T20:08:20.482Z,113.50
2022-10-27T20:10:53.299Z,120.90
2022-10-27T20:13:24.700Z,119.40
2022-10-27T20:16:19.770Z,132.80
2022-10-27T20:18:56.673Z,123.60
2022-10-27T20:21:53.448Z,121.00
2022-10-27T20:24:28.014Z,126.00
2022-10-27T20:26:56.382Z,127.90
2022-10-27T20:29:50.440Z,127.00
2022-10-27T20:32:23.085Z,117.00
2022-10-27T20:34:51.934Z,118.70
2022-10-27T20:37:21.746Z,118.00
2022-10-27T20:39:53.820Z,117.00
2022-10-27T20:42:24.926Z,114.20
2022-10-27T20:45:17.401Z,117.20
2022-10-27T20:48:59.055Z,127.20
2022-10-27T20:51:34.743Z,117.70
2022-10-27T20:54:57.254Z,123.00
2022-10-27T20:57:26.982Z,122.70
2022-10-27T21:06:37.787Z,132.50
2022-10-27T21:09:12.341Z,143.70
2022-10-27T21:12:32.271Z,133.80
2022-10-27T21:15:02.331Z,116.20
2022-10-27T21:17:30.759Z,116.80
2022-10-27T21:20:24.886Z,120.40
2022-10-27T21:23:21.007Z,127.90
2022-10-27T21:25:52.632Z,117.50
2022-10-27T21:28:51.108Z,122.20
2022-10-27T21:31:24.363Z,137.40
2022-10-27T21:34:17.872Z,114.00
2022-10-27T21:37:13.762Z,124.80
2022-10-27T21:39:43.126Z,122.20
2022-10-27T21:42:19.219Z,127.50
2022-10-27T21:44:49.603Z,124.00
2022-10-27T21:47:23.646Z,123.60
2022-10-27T21:53:39.635Z,117.40
2022-10-27T21:56:11.313Z,115.40
2022-10-27T21:58:40.409Z,116.00
2022-10-27T22:01:14.163Z,112.10
2022-10-27T22:04:07.905Z,115.20
2022-10-27T22:06:38.254Z,118.00
2022-10-27T22:09:14.255Z,113.90
2022-10-27T22:12:13.219Z,114.10
2022-10-27T22:15:13.228Z,117.70
2022-10-27T22:18:32.441Z,115.00
2022-10-27T22:21:03.471Z,111.20
2022-10-27T22:23:39.258Z,117.20
2022-10-27T22:26:12.211Z,117.60
2022-10-27T22:28:43.239Z,114.80
2022-10-27T22:31:39.034Z,113.10
2022-10-27T22:34:13.203Z,112.20
2022-10-27T22:37:07.789Z,110.90
2022-10-27T22:39:38.754Z,109.60
2022-10-27T22:42:12.249Z,114.70
2022-10-27T22:44:45.968Z,112.30
2022-10-27T22:47:18.287Z,112.80
2022-10-27T22:49:53.108Z,112.10
2022-10-27T22:52:48.892Z,113.20
2022-10-27T22:56:37.079Z,108.90
2022-10-27T22:59:57.565Z,113.20
2022-10-27T23:02:32.424Z,112.40
2022-10-27T23:16:17.191Z,90.90
2022-10-27T23:19:18.130Z,110.70
2022-10-27T23:22:39.154Z,114.80
2022-10-27T23:25:11.414Z,111.40
2022-10-27T23:27:42.025Z,116.60
2022-10-27T23:30:38.915Z,117.10
2022-10-27T23:33:08.352Z,119.00
2022-10-27T23:36:07.375Z,120.30
2022-10-27T23:38:41.264Z,125.90
2022-10-27T23:45:27.180Z,117.10
2022-10-27T23:52:07.103Z,116.00
2022-10-27T23:55:07.458Z,113.20
2022-10-27T23:57:38.949Z,115.30
